00:42
Airports
History
Links
Donate
Help keep this website running!
PayPal
Bitcoin
Information on this page is community maintained and may be outdated or inaccurate and is intended for reference only or PC simulator navigating!
Always use approved charts for navigating.
SDTB
Atibaia
Atibaia (SDTB)
Atibaia, São Paulo, Brazil (12952)
4
Lat/Lng:23° 7' 40" S / 46° 34' 29" W
-23.127778 / -46.574722
Elevation:2592'ft 790mMSL
ID / ICAO:SDTB
Runways:1
Longest:(02-20) 804.7m 2,640ft Dirt
Distance To
Airport ID:
Nearby WeatherUpdated 03-30-17 00:00 GMT
Nearby weather at SBGR, Sao Paulo - Guarulhos located 22.1 nautical miles from SDTB
Altimeter: 30.09
Visibility: 6.2 statute miles
Wind: 5 knots (130°)
Temp: 18°c 64°f
Humidity: 82.6%

METAR: SBGR 300000Z 13005KT 9999 SCT015 18/15 Q1019

(Powered by phpweather)
Runway 02 / 20
Dimensions:804.7 x 29.9m 2640' x 98'ft
Surface:Dirt
Runway 02 [A]Runway 20 [B]
Heading:359°TH 179°TH
Lat:
Lng:
23° 7' 52.95"S
46° 34' 28.86"W
23° 7' 27.05"S
46° 34' 29.14"W
Google Map
Nearby Airports
(U) Fazenda Vale Eldorado 9.4 NM
SDVH NNW 335°
(U) Aeroporto Estadual Arthur Siqueira 10.5 NM
SBBP NNE 12°
(U) AEROPORTO ESTADUAL ARTHUR SIQUEIRA 10.6 NM
SDBP NNE 13°
(C) Sao Paulo - Guarulhos 22.1 NM
SBGR (WX) SSE 162°
(C) Jundiai 23.7 NM
SBJD W 260°
(C) MARTE 26.6 NM
SBMT (WX) S 188°
(U) Tres Marias 31.8 NM
SDWL W 262°
VFR Chart
Flight Planning at SkyVector.com